Time;durP1;ratioP1;P1;durP2;ratioP2;P2;SDS_P1;SDS_P2;PMS_P1;PMS_P2;Temp;Humidity;BMP_temperature;BMP_pressure;BME280_temperature;BME280_humidity;BME280_pressure;Samples;Min_cycle;Max_cycle;Signal;HPM_P1;HPM_P2
2022/04/09 00:00:43;;;;;;;9.07;1.75;;;4.80;99.90;;;;;;5078738;28;20044;-71
2022/04/09 00:03:09;;;;;;;7.55;1.60;;;4.80;99.90;;;;;;5078438;28;20043;-71
2022/04/09 00:05:36;;;;;;;6.30;1.30;;;4.80;99.90;;;;;;5078626;28;20043;-72
2022/04/09 00:08:02;;;;;;;4.78;1.05;;;4.70;99.90;;;;;;5061865;28;20036;-72
2022/04/09 00:10:27;;;;;;;6.30;1.40;;;4.70;99.90;;;;;;5078251;28;20560;-72
2022/04/09 00:12:53;;;;;;;5.75;1.10;;;4.70;99.90;;;;;;5078095;28;20031;-72
2022/04/09 00:15:19;;;;;;;6.32;1.05;;;4.60;99.90;;;;;;5078103;28;20032;-72
2022/04/09 00:17:46;;;;;;;5.03;1.02;;;4.60;99.90;;;;;;5078093;28;20035;-72
2022/04/09 00:20:13;;;;;;;7.50;1.50;;;4.60;99.90;;;;;;5078070;28;20409;-72
2022/04/09 00:22:39;;;;;;;6.95;1.17;;;4.50;99.90;;;;;;5078037;28;20412;-72
2022/04/09 00:25:06;;;;;;;8.13;1.33;;;4.50;99.90;;;;;;5077933;28;20036;-72
2022/04/09 00:27:32;;;;;;;13.30;1.77;;;4.50;99.90;;;;;;5061204;28;20043;-72
2022/04/09 00:29:57;;;;;;;8.88;1.58;;;4.50;99.90;;;;;;5078220;28;20040;-72
2022/04/09 00:32:23;;;;;;;6.63;1.30;;;4.40;99.90;;;;;;5061252;28;20454;-72
2022/04/09 00:34:48;;;;;;;16.67;3.15;;;4.40;99.90;;;;;;5061321;28;20489;-72
2022/04/09 00:37:14;;;;;;;11.02;2.10;;;4.40;99.90;;;;;;5077767;28;20447;-72
2022/04/09 00:39:40;;;;;;;9.18;1.60;;;4.40;99.90;;;;;;5077642;28;20039;-72
2022/04/09 00:42:11;;;;;;;11.85;2.03;;;4.50;99.90;;;;;;5077965;28;20051;-72
2022/04/09 00:44:37;;;;;;;13.45;1.90;;;4.50;99.90;;;;;;5077890;28;20048;-72
2022/04/09 00:47:03;;;;;;;13.35;2.22;;;4.60;99.90;;;;;;5077581;28;20044;-72
2022/04/09 00:49:28;;;;;;;7.55;1.80;;;4.60;99.90;;;;;;5061094;28;20568;-72
2022/04/09 00:51:55;;;;;;;12.65;1.80;;;4.60;99.90;;;;;;5060776;28;20067;-72
2022/04/09 00:54:24;;;;;;;10.25;1.88;;;4.60;99.90;;;;;;5077406;28;20412;-72
2022/04/09 00:56:51;;;;;;;11.65;1.50;;;4.70;99.90;;;;;;5077451;28;20036;-72
2022/04/09 00:59:23;;;;;;;10.00;1.88;;;4.70;99.90;;;;;;5076320;28;20468;-72
2022/04/09 01:01:51;;;;;;;9.80;1.88;;;4.80;99.90;;;;;;5077368;28;20397;-72
2022/04/09 01:04:18;;;;;;;11.05;1.60;;;4.80;99.90;;;;;;5077327;28;20051;-72
2022/04/09 01:06:43;;;;;;;10.63;1.67;;;4.80;99.90;;;;;;5077210;28;20119;-72
2022/04/09 01:09:09;;;;;;;11.15;1.75;;;4.80;99.90;;;;;;5077098;28;20135;-72
2022/04/09 01:11:35;;;;;;;9.50;1.83;;;4.80;99.90;;;;;;5077096;28;20036;-72
2022/04/09 01:14:01;;;;;;;10.70;2.42;;;4.80;99.90;;;;;;5077363;28;20035;-72
2022/04/09 01:16:29;;;;;;;8.65;1.73;;;4.90;99.90;;;;;;5077072;28;20438;-72
2022/04/09 01:18:59;;;;;;;11.35;1.63;;;4.80;99.90;;;;;;5076884;28;20044;-72
2022/04/09 01:21:26;;;;;;;5.88;1.30;;;4.80;99.90;;;;;;5077271;28;20490;-72
2022/04/09 01:23:52;;;;;;;9.05;1.30;;;4.80;99.90;;;;;;5076950;28;20381;-72
2022/04/09 01:26:18;;;;;;;8.23;1.60;;;4.80;99.90;;;;;;5076860;28;20048;-72
2022/04/09 01:28:44;;;;;;;8.98;1.48;;;4.80;99.90;;;;;;5076993;28;20079;-72
2022/04/09 01:31:10;;;;;;;10.68;1.60;;;4.80;99.90;;;;;;5077504;28;20044;-72
2022/04/09 01:33:36;;;;;;;8.98;1.85;;;4.80;99.90;;;;;;5060861;28;20119;-72
2022/04/09 01:36:02;;;;;;;8.63;1.98;;;4.70;99.90;;;;;;5076563;28;20124;-72
2022/04/09 01:38:28;;;;;;;8.05;1.55;;;4.70;99.90;;;;;;5059998;28;20038;-72
2022/04/09 01:40:56;;;;;;;12.65;2.28;;;4.70;99.90;;;;;;5077119;28;20514;-74
2022/04/09 01:43:22;;;;;;;14.43;2.35;;;4.70;99.90;;;;;;5059900;28;20082;-74
2022/04/09 01:45:47;;;;;;;10.55;1.70;;;4.70;99.90;;;;;;5059864;28;20032;-74
2022/04/09 01:48:13;;;;;;;9.73;1.77;;;4.70;99.90;;;;;;5077043;28;20043;-74
2022/04/09 01:50:39;;;;;;;11.88;2.05;;;4.70;99.90;;;;;;5076327;28;20044;-75
2022/04/09 01:53:05;;;;;;;9.35;2.42;;;4.70;99.90;;;;;;5060051;28;20047;-74
2022/04/09 01:55:32;;;;;;;11.50;2.08;;;4.70;99.90;;;;;;5059721;28;20058;-74
2022/04/09 01:57:58;;;;;;;14.00;1.92;;;4.70;99.90;;;;;;5076236;28;20573;-74
2022/04/09 02:00:24;;;;;;;15.32;2.00;;;4.70;99.90;;;;;;5076306;28;20036;-74
2022/04/09 02:02:51;;;;;;;10.13;2.25;;;4.70;99.90;;;;;;5076249;28;20044;-74
2022/04/09 02:05:17;;;;;;;12.07;2.50;;;4.70;99.90;;;;;;5059520;28;20584;-74
2022/04/09 02:07:43;;;;;;;8.85;2.38;;;4.60;99.90;;;;;;5059593;28;20123;-74
2022/04/09 02:10:11;;;;;;;13.88;2.35;;;4.60;99.90;;;;;;5076256;28;20035;-74
2022/04/09 02:12:37;;;;;;;12.02;2.33;;;4.50;99.90;;;;;;5075933;28;20089;-74
2022/04/09 02:15:04;;;;;;;11.30;2.13;;;4.50;99.90;;;;;;5076194;28;20040;-74
2022/04/09 02:17:30;;;;;;;11.77;2.42;;;4.50;99.90;;;;;;5059282;28;20076;-74
2022/04/09 02:19:55;;;;;;;11.60;1.95;;;4.40;99.90;;;;;;5075876;28;20032;-74
2022/04/09 02:22:21;;;;;;;9.23;1.85;;;4.40;99.90;;;;;;5075865;28;20051;-74
2022/04/09 02:24:50;;;;;;;10.20;1.83;;;4.30;99.90;;;;;;5075863;28;20097;-74
2022/04/09 02:27:15;;;;;;;10.02;2.00;;;4.30;99.90;;;;;;5059092;28;20040;-74
2022/04/09 02:29:41;;;;;;;8.50;1.92;;;4.30;99.90;;;;;;5075781;28;20389;-74
2022/04/09 02:32:07;;;;;;;7.22;1.40;;;4.20;99.90;;;;;;5075770;28;20127;-74
2022/04/09 02:34:32;;;;;;;10.85;2.30;;;4.20;99.90;;;;;;5075833;28;20485;-74
2022/04/09 02:36:58;;;;;;;15.93;1.95;;;4.20;99.90;;;;;;5075840;28;20377;-74
2022/04/09 02:39:24;;;;;;;7.80;1.55;;;4.20;99.90;;;;;;5058756;28;20470;-74
2022/04/09 02:41:52;;;;;;;10.20;1.50;;;4.20;99.90;;;;;;5075524;28;20036;-74
2022/04/09 02:44:17;;;;;;;8.82;1.55;;;4.20;99.90;;;;;;5058760;28;20051;-74
2022/04/09 02:46:44;;;;;;;7.53;1.20;;;4.20;99.90;;;;;;5075518;28;20036;-74
2022/04/09 02:49:10;;;;;;;9.63;1.33;;;4.10;99.90;;;;;;5075689;28;20040;-74
2022/04/09 02:51:36;;;;;;;7.38;1.23;;;4.10;99.90;;;;;;5058811;28;20436;-75
2022/04/09 02:54:01;;;;;;;10.65;1.38;;;4.10;99.90;;;;;;5075631;28;20028;-74
2022/04/09 02:56:27;;;;;;;5.88;1.00;;;4.10;99.90;;;;;;5075394;28;20097;-74
2022/04/09 02:58:52;;;;;;;6.28;1.17;;;4.10;99.90;;;;;;5075348;28;20068;-74
2022/04/09 03:01:18;;;;;;;7.30;1.30;;;4.10;99.90;;;;;;5058621;28;20047;-74
2022/04/09 03:03:44;;;;;;;9.18;1.38;;;4.10;99.90;;;;;;5075409;28;20048;-74
2022/04/09 03:06:10;;;;;;;7.15;1.13;;;4.10;99.90;;;;;;5058546;28;20040;-74
2022/04/09 03:08:36;;;;;;;4.32;0.85;;;4.10;99.90;;;;;;5075294;28;20048;-74
2022/04/09 03:11:01;;;;;;;8.80;1.02;;;4.10;99.90;;;;;;5058398;28;20039;-74
2022/04/09 03:13:27;;;;;;;8.90;1.58;;;4.10;99.90;;;;;;5058562;28;20040;-74
2022/04/09 03:15:52;;;;;;;6.10;1.08;;;4.10;99.90;;;;;;5058563;28;20040;-74
2022/04/09 03:18:18;;;;;;;7.68;1.50;;;4.10;99.90;;;;;;5075136;28;20044;-74
2022/04/09 03:20:43;;;;;;;7.72;1.27;;;4.10;99.90;;;;;;5075299;28;20042;-74
2022/04/09 03:23:09;;;;;;;7.05;1.33;;;4.00;99.90;;;;;;5062896;28;20039;-74
2022/04/09 03:25:35;;;;;;;11.35;1.73;;;4.10;99.90;;;;;;5079292;28;20411;-75
2022/04/09 03:28:00;;;;;;;10.45;1.48;;;4.00;99.90;;;;;;5062338;28;20043;-74
2022/04/09 03:30:26;;;;;;;5.93;1.45;;;4.00;99.90;;;;;;5079081;28;20136;-74
2022/04/09 03:32:51;;;;;;;9.23;1.40;;;4.00;99.90;;;;;;5079045;28;20036;-74
2022/04/09 03:35:17;;;;;;;8.00;1.20;;;4.00;99.90;;;;;;5079002;28;20123;-74
2022/04/09 03:37:45;;;;;;;9.15;1.55;;;4.00;99.90;;;;;;5079099;28;20071;-74
2022/04/09 03:40:12;;;;;;;11.60;1.40;;;4.00;99.90;;;;;;5062391;28;20036;-74
2022/04/09 03:42:38;;;;;;;9.00;1.40;;;4.00;99.90;;;;;;5079064;28;20047;-74
2022/04/09 03:45:04;;;;;;;7.45;1.35;;;4.00;99.90;;;;;;5078889;28;20039;-74
2022/04/09 03:47:33;;;;;;;6.43;1.55;;;4.00;99.90;;;;;;5062655;28;20083;-74
2022/04/09 03:50:01;;;;;;;6.57;1.23;;;4.00;99.90;;;;;;5078735;28;20043;-74
2022/04/09 03:52:26;;;;;;;10.43;1.35;;;4.00;99.90;;;;;;5078605;28;20062;-74
2022/04/09 03:54:52;;;;;;;9.60;1.98;;;4.00;99.90;;;;;;5061968;28;20036;-74
2022/04/09 03:57:19;;;;;;;9.27;1.60;;;4.00;99.90;;;;;;5078531;28;20079;-73
2022/04/09 03:59:44;;;;;;;8.13;1.33;;;4.10;99.90;;;;;;5062152;28;20044;-74
2022/04/09 04:02:10;;;;;;;8.93;1.00;;;4.10;99.90;;;;;;5078439;28;20408;-74
2022/04/09 04:04:37;;;;;;;7.53;1.08;;;4.20;99.90;;;;;;5061979;28;20051;-74
2022/04/09 04:07:03;;;;;;;3.72;0.55;;;4.20;99.90;;;;;;5078693;28;20075;-74
2022/04/09 04:09:29;;;;;;;6.38;0.80;;;4.20;99.90;;;;;;5078267;28;20044;-74
2022/04/09 04:11:54;;;;;;;5.43;1.00;;;4.20;99.90;;;;;;5078297;28;20093;-74
2022/04/09 04:14:20;;;;;;;4.38;0.85;;;4.20;99.90;;;;;;5078241;28;20032;-74
2022/04/09 04:16:46;;;;;;;6.72;1.00;;;4.20;99.90;;;;;;5078183;28;20043;-73
2022/04/09 04:19:11;;;;;;;9.45;1.48;;;4.20;99.90;;;;;;5061681;28;20035;-74
2022/04/09 04:21:38;;;;;;;5.50;0.95;;;4.20;99.90;;;;;;5078196;28;20567;-74
2022/04/09 04:24:04;;;;;;;8.02;1.23;;;4.10;99.90;;;;;;5078111;28;20046;-74
2022/04/09 04:26:30;;;;;;;9.43;1.15;;;4.10;99.90;;;;;;5061376;28;20408;-74
2022/04/09 04:28:55;;;;;;;7.78;1.55;;;4.00;99.90;;;;;;5077903;28;20040;-74
2022/04/09 04:31:21;;;;;;;7.78;1.27;;;4.00;99.90;;;;;;5061446;28;20081;-74
2022/04/09 04:33:46;;;;;;;6.15;1.45;;;4.00;99.90;;;;;;5076643;28;20040;-74
2022/04/09 04:36:12;;;;;;;8.50;1.65;;;4.00;99.90;;;;;;5077905;28;20032;-74
2022/04/09 04:38:38;;;;;;;9.60;1.23;;;4.00;99.90;;;;;;5060937;28;20040;-74
2022/04/09 04:41:06;;;;;;;10.02;1.70;;;4.00;99.90;;;;;;5077870;28;20046;-74
2022/04/09 04:43:32;;;;;;;11.23;1.52;;;4.00;99.90;;;;;;5077784;28;20040;-74
2022/04/09 04:45:58;;;;;;;8.93;1.27;;;4.00;99.90;;;;;;5061340;28;20040;-74
2022/04/09 04:48:24;;;;;;;7.78;1.30;;;4.10;99.90;;;;;;5077580;28;20044;-74
2022/04/09 04:50:49;;;;;;;8.93;1.58;;;4.00;99.90;;;;;;5077557;28;20058;-74
2022/04/09 04:53:15;;;;;;;8.07;1.30;;;4.10;99.90;;;;;;5077612;28;20039;-74
2022/04/09 04:55:41;;;;;;;11.90;1.40;;;4.10;99.90;;;;;;5077779;28;20046;-74
2022/04/09 04:58:07;;;;;;;12.20;1.42;;;4.10;99.90;;;;;;5060762;28;20496;-74
2022/04/09 05:00:33;;;;;;;7.95;1.27;;;4.10;99.90;;;;;;5077403;28;20404;-74
2022/04/09 05:02:59;;;;;;;7.80;1.20;;;4.00;99.90;;;;;;5077442;28;20140;-74
2022/04/09 05:05:24;;;;;;;11.05;1.52;;;4.10;99.90;;;;;;5077679;28;20720;-74
2022/04/09 05:07:51;;;;;;;8.05;1.20;;;4.10;99.90;;;;;;5077190;28;20039;-74
2022/04/09 05:10:25;;;;;;;8.18;1.48;;;4.10;99.90;;;;;;5077278;28;20516;-74
2022/04/09 05:12:54;;;;;;;8.68;1.58;;;4.10;99.90;;;;;;5077198;28;20044;-74
2022/04/09 05:15:20;;;;;;;9.38;2.17;;;4.10;99.90;;;;;;5077417;28;20040;-74
2022/04/09 05:17:46;;;;;;;10.50;1.80;;;4.10;99.90;;;;;;5060415;28;20064;-74
2022/04/09 05:20:16;;;;;;;8.30;1.50;;;4.10;99.90;;;;;;5060719;28;20400;-74
2022/04/09 05:22:46;;;;;;;5.55;1.42;;;4.10;99.90;;;;;;5060683;28;20040;-74
2022/04/09 05:25:13;;;;;;;9.07;2.53;;;4.10;99.90;;;;;;5060442;28;20122;-73
2022/04/09 05:27:45;;;;;;;11.15;1.63;;;4.10;99.90;;;;;;5060325;28;20075;-74
2022/04/09 05:30:11;;;;;;;8.65;1.60;;;4.10;99.90;;;;;;5076999;28;20043;-74
2022/04/09 05:32:37;;;;;;;11.73;1.70;;;4.10;99.90;;;;;;5076748;28;20126;-74
2022/04/09 05:35:09;;;;;;;10.77;2.15;;;4.10;99.90;;;;;;5076778;28;20085;-74
2022/04/09 05:37:35;;;;;;;13.45;1.70;;;4.10;99.90;;;;;;5076607;28;20084;-74
2022/04/09 05:40:00;;;;;;;8.80;1.83;;;4.10;99.90;;;;;;5076669;28;20071;-74
2022/04/09 05:42:26;;;;;;;10.45;1.50;;;4.10;99.90;;;;;;5076707;28;20070;-74
2022/04/09 05:44:53;;;;;;;10.82;2.00;;;4.20;99.90;;;;;;5059573;28;20043;-74
2022/04/09 05:47:18;;;;;;;10.30;1.80;;;4.20;99.90;;;;;;5076724;28;20123;-73
2022/04/09 05:49:44;;;;;;;19.73;2.60;;;4.30;99.90;;;;;;5076467;28;20083;-74
2022/04/09 05:52:10;;;;;;;11.80;1.80;;;4.40;99.90;;;;;;5076295;28;20036;-74
2022/04/09 05:54:35;;;;;;;10.85;2.25;;;4.60;99.90;;;;;;5076364;28;20074;-74
2022/04/09 05:57:02;;;;;;;7.57;1.40;;;4.80;99.90;;;;;;5076759;28;20040;-74
2022/04/09 05:59:28;;;;;;;10.00;2.08;;;4.90;99.90;;;;;;5077473;28;20032;-74
2022/04/09 06:01:54;;;;;;;12.00;1.30;;;5.00;99.90;;;;;;5059863;28;20089;-74
2022/04/09 06:04:20;;;;;;;5.90;1.10;;;5.00;99.90;;;;;;5077662;28;20043;-74
2022/04/09 06:06:47;;;;;;;9.63;1.30;;;5.00;99.90;;;;;;5077536;28;20055;-73
2022/04/09 06:09:13;;;;;;;6.00;1.20;;;5.00;99.90;;;;;;5077418;28;20051;-73
2022/04/09 06:11:39;;;;;;;8.45;1.30;;;5.00;99.90;;;;;;5077725;28;20039;-74
2022/04/09 06:14:05;;;;;;;6.40;1.00;;;4.90;99.90;;;;;;5060547;28;20044;-73
2022/04/09 06:16:31;;;;;;;8.23;2.00;;;4.90;99.90;;;;;;5077214;28;20071;-74
2022/04/09 06:18:56;;;;;;;10.10;1.75;;;4.90;99.90;;;;;;5060900;28;20078;-73
2022/04/09 06:21:22;;;;;;;5.68;1.30;;;4.90;99.90;;;;;;5061387;28;20044;-74
2022/04/09 06:23:47;;;;;;;7.07;1.20;;;4.90;99.90;;;;;;5062227;28;20036;-73
2022/04/09 06:26:13;;;;;;;7.40;1.48;;;4.90;99.90;;;;;;5079607;28;20103;-74
2022/04/09 06:28:39;;;;;;;9.45;1.65;;;4.90;99.90;;;;;;5076115;28;20044;-74
2022/04/09 06:31:04;;;;;;;10.05;1.42;;;5.00;99.90;;;;;;5076288;28;20040;-74
2022/04/09 06:33:30;;;;;;;8.48;1.45;;;5.00;99.90;;;;;;5075996;28;20063;-74
2022/04/09 06:35:55;;;;;;;9.57;1.80;;;5.10;99.90;;;;;;5059561;28;20036;-75
2022/04/09 06:38:21;;;;;;;7.45;1.55;;;5.10;99.90;;;;;;5075737;28;20071;-74
2022/04/09 06:40:46;;;;;;;11.60;1.63;;;5.20;99.90;;;;;;5075859;28;20032;-74
2022/04/09 06:43:12;;;;;;;10.70;2.10;;;5.20;99.90;;;;;;5076025;28;20068;-74
2022/04/09 06:45:38;;;;;;;11.10;2.13;;;5.30;99.90;;;;;;5075645;28;20043;-73
2022/04/09 06:48:03;;;;;;;8.52;1.67;;;5.30;99.90;;;;;;5075517;28;20036;-73
2022/04/09 06:50:29;;;;;;;11.55;1.70;;;5.50;99.90;;;;;;5076183;28;20036;-74
2022/04/09 06:52:55;;;;;;;10.90;2.25;;;5.60;99.90;;;;;;5076838;28;20048;-74
2022/04/09 06:55:20;;;;;;;12.15;2.03;;;5.80;99.90;;;;;;5075887;28;20075;-73
2022/04/09 06:57:46;;;;;;;11.73;2.00;;;5.90;99.90;;;;;;5058871;28;20488;-74
2022/04/09 07:00:16;;;;;;;13.95;2.20;;;6.00;99.90;;;;;;5076265;28;20040;-74
2022/04/09 07:02:42;;;;;;;15.32;1.95;;;6.00;99.90;;;;;;5076223;28;20048;-74
2022/04/09 07:05:08;;;;;;;10.70;1.45;;;6.00;99.90;;;;;;5076378;28;20123;-74
2022/04/09 07:07:34;;;;;;;12.43;2.20;;;6.00;99.90;;;;;;5077861;28;20048;-74
2022/04/09 07:10:09;;;;;;;11.35;1.70;;;5.90;99.90;;;;;;5077114;28;20047;-74
2022/04/09 07:12:35;;;;;;;9.30;1.30;;;5.90;99.90;;;;;;5059537;28;20520;-74
2022/04/09 07:15:02;;;;;;;8.27;1.30;;;5.90;99.90;;;;;;5076230;28;20062;-74
2022/04/09 07:17:29;;;;;;;3.13;0.77;;;5.90;99.90;;;;;;5059345;28;20039;-74
2022/04/09 07:20:04;;;;;;;6.85;1.05;;;6.00;99.90;;;;;;5075989;28;20044;-74
2022/04/09 07:22:30;;;;;;;5.75;1.10;;;6.00;99.90;;;;;;5059323;28;20043;-74
2022/04/09 07:24:56;;;;;;;6.90;1.33;;;6.00;99.90;;;;;;5059381;28;20040;-74
2022/04/09 07:27:33;;;;;;;9.82;1.25;;;6.00;99.90;;;;;;5076800;28;20123;-74
2022/04/09 07:29:58;;;;;;;7.10;1.08;;;6.10;99.90;;;;;;5059092;28;20393;-74
2022/04/09 07:32:24;;;;;;;10.02;1.52;;;6.10;99.90;;;;;;5075520;28;20047;-74
2022/04/09 07:34:49;;;;;;;6.53;1.65;;;6.20;99.90;;;;;;5075415;28;20028;-74
2022/04/09 07:37:15;;;;;;;15.10;1.73;;;6.30;99.90;;;;;;5075644;28;20507;-73
2022/04/09 07:39:40;;;;;;;9.90;1.85;;;6.30;99.90;;;;;;5075181;28;20502;-74
2022/04/09 07:42:06;;;;;;;12.98;2.13;;;6.40;99.90;;;;;;5075335;28;20503;-71
2022/04/09 07:44:32;;;;;;;9.25;1.85;;;6.50;99.90;;;;;;5058079;28;20051;-71
2022/04/09 07:46:57;;;;;;;14.98;1.70;;;6.60;99.90;;;;;;5075083;28;20032;-71
2022/04/09 07:49:23;;;;;;;9.75;1.80;;;6.60;99.90;;;;;;5075050;28;20040;-71
2022/04/09 07:51:48;;;;;;;13.40;1.63;;;6.70;99.90;;;;;;5074679;28;20500;-71
2022/04/09 07:54:15;;;;;;;6.82;1.33;;;6.80;99.90;;;;;;5058066;28;20032;-71
2022/04/09 07:56:40;;;;;;;8.45;1.48;;;6.90;99.90;;;;;;5074988;28;20036;-71
2022/04/09 07:59:06;;;;;;;10.20;1.83;;;6.90;99.90;;;;;;5074665;28;20488;-71
2022/04/09 08:01:31;;;;;;;10.30;1.55;;;6.90;99.90;;;;;;5074956;28;20044;-71
2022/04/09 08:03:57;;;;;;;7.88;1.42;;;7.10;99.90;;;;;;5074906;28;20050;-71
2022/04/09 08:06:22;;;;;;;9.00;1.30;;;7.10;99.90;;;;;;5074661;28;20131;-71
2022/04/09 08:08:51;;;;;;;8.38;1.40;;;7.20;99.90;;;;;;5078128;28;20043;-71
2022/04/09 08:11:17;;;;;;;9.02;1.52;;;7.20;99.90;;;;;;5061594;28;20044;-71
2022/04/09 08:13:42;;;;;;;9.05;1.63;;;7.30;99.90;;;;;;5078240;28;20122;-70
2022/04/09 08:16:08;;;;;;;7.57;1.20;;;7.30;99.90;;;;;;5078292;28;20039;-70
2022/04/09 08:18:34;;;;;;;10.13;1.40;;;7.40;99.90;;;;;;5078115;28;20097;-71
2022/04/09 08:20:59;;;;;;;10.02;1.65;;;7.40;99.90;;;;;;5078155;28;20051;-71
2022/04/09 08:23:25;;;;;;;10.80;2.17;;;7.50;99.90;;;;;;5078083;28;20039;-71
2022/04/09 08:25:50;;;;;;;9.50;1.27;;;7.50;99.90;;;;;;5061437;28;20077;-71
2022/04/09 08:28:17;;;;;;;11.88;2.05;;;7.70;99.90;;;;;;5077874;28;20036;-71
2022/04/09 08:30:45;;;;;;;9.15;1.50;;;7.80;99.90;;;;;;5078136;28;20145;-71
2022/04/09 08:33:13;;;;;;;11.02;1.38;;;8.00;99.90;;;;;;5061217;28;20401;-71
2022/04/09 08:35:39;;;;;;;7.97;1.60;;;8.10;99.90;;;;;;5078000;28;20040;-71
2022/04/09 08:38:05;;;;;;;8.18;1.60;;;8.20;99.90;;;;;;5078006;28;20043;-71
2022/04/09 08:40:35;;;;;;;9.10;1.20;;;8.30;99.90;;;;;;5077776;28;20089;-70
2022/04/09 08:43:03;;;;;;;10.25;1.40;;;8.50;99.90;;;;;;5078010;28;20044;-70
2022/04/09 08:45:34;;;;;;;11.30;1.60;;;8.60;99.90;;;;;;5077692;28;20119;-70
2022/04/09 08:48:00;;;;;;;5.97;1.10;;;8.70;99.90;;;;;;5061220;28;20079;-71
2022/04/09 08:50:27;;;;;;;9.23;1.75;;;8.80;99.90;;;;;;5077875;28;20139;-71
2022/04/09 08:52:54;;;;;;;5.80;0.98;;;8.80;99.90;;;;;;5077524;28;20048;-71
2022/04/09 08:55:20;;;;;;;7.70;1.35;;;8.70;99.90;;;;;;5077492;28;20035;-71
2022/04/09 08:57:46;;;;;;;8.73;1.10;;;8.60;99.90;;;;;;5077408;28;20039;-71
2022/04/09 09:00:13;;;;;;;14.40;1.63;;;8.60;99.90;;;;;;5077686;28;20467;-71
2022/04/09 09:02:53;;;;;;;6.90;1.80;;;8.60;99.90;;;;;;5077415;28;20048;-71
2022/04/09 09:05:37;;;;;;;5.35;1.17;;;8.70;99.90;;;;;;5060618;28;20044;-70
2022/04/09 09:08:04;;;;;;;5.88;1.25;;;9.00;99.90;;;;;;5060493;28;20548;-70
2022/04/09 09:10:30;;;;;;;8.13;1.38;;;8.90;99.90;;;;;;5077428;28;20044;-70
2022/04/09 09:12:58;;;;;;;8.40;1.73;;;9.00;99.90;;;;;;5077166;28;20039;-70
2022/04/09 09:15:24;;;;;;;7.07;1.20;;;9.20;99.90;;;;;;5077380;28;20086;-70
2022/04/09 09:17:56;;;;;;;7.95;1.63;;;9.50;99.90;;;;;;5077057;28;20040;-71
2022/04/09 09:20:21;;;;;;;8.98;1.40;;;9.70;99.90;;;;;;5076376;28;20071;-71
2022/04/09 09:22:49;;;;;;;10.73;1.70;;;9.80;99.90;;;;;;5077288;28;20090;-70
2022/04/09 09:25:14;;;;;;;9.18;1.55;;;10.00;99.90;;;;;;5077406;28;20393;-71
2022/04/09 09:27:40;;;;;;;9.52;1.90;;;10.10;99.90;;;;;;5076843;28;20514;-71
2022/04/09 09:30:09;;;;;;;6.95;1.17;;;10.20;99.90;;;;;;5077106;28;20516;-71
2022/04/09 09:32:35;;;;;;;13.95;2.00;;;10.30;99.90;;;;;;5060485;28;20066;-70
2022/04/09 09:35:02;;;;;;;5.70;1.60;;;10.00;99.90;;;;;;5077022;28;20131;-70
2022/04/09 09:37:30;;;;;;;9.60;2.08;;;10.10;99.90;;;;;;5076741;28;20032;-70
2022/04/09 09:39:56;;;;;;;9.57;1.95;;;10.20;99.90;;;;;;5076937;28;20408;-70
2022/04/09 09:42:24;;;;;;;5.57;1.13;;;10.30;99.90;;;;;;5060093;28;20076;-70
2022/04/09 09:44:50;;;;;;;8.07;1.92;;;9.90;99.90;;;;;;5059778;28;20032;-70
2022/04/09 09:47:16;;;;;;;13.48;1.67;;;9.60;99.90;;;;;;5076483;28;20046;-70
2022/04/09 09:50:02;;;;;;;14.00;2.10;;;9.30;99.90;;;;;;5076429;28;20044;-70
2022/04/09 09:52:30;;;;;;;8.73;1.55;;;9.00;99.90;;;;;;5059369;28;20136;-70
2022/04/09 09:55:02;;;;;;;10.48;1.80;;;9.20;99.90;;;;;;5076307;28;20040;-70
2022/04/09 09:57:32;;;;;;;15.57;2.03;;;9.60;99.90;;;;;;5076161;28;20447;-71
2022/04/09 10:00:04;;;;;;;9.40;1.63;;;9.70;99.90;;;;;;5076546;28;20044;-71
2022/04/09 10:02:30;;;;;;;8.18;1.55;;;9.60;99.90;;;;;;5076199;28;20044;-70
2022/04/09 10:04:59;;;;;;;10.00;1.80;;;9.40;99.90;;;;;;5076066;28;20072;-70
2022/04/09 10:07:25;;;;;;;10.32;2.00;;;9.40;99.90;;;;;;5076205;28;20075;-71
2022/04/09 10:09:53;;;;;;;12.07;1.52;;;9.40;99.90;;;;;;5076050;28;20515;-70
2022/04/09 10:12:23;;;;;;;9.00;1.58;;;9.30;99.90;;;;;;5075950;28;20051;-71
2022/04/09 10:14:54;;;;;;;8.68;1.70;;;9.20;99.90;;;;;;5059412;28;20043;-70
2022/04/09 10:17:21;;;;;;;7.68;1.50;;;9.40;99.90;;;;;;5075883;28;20044;-70
2022/04/09 10:19:54;;;;;;;7.20;1.15;;;9.60;99.90;;;;;;5075909;28;20127;-70
2022/04/09 10:22:21;;;;;;;;;;;9.90;99.90;;;;;;5059645;28;20036;-70
2022/04/09 10:24:48;;;;;;;6.07;1.00;;;10.40;99.90;;;;;;5075799;28;19916;-70
2022/04/09 10:27:47;;;;;;;7.95;1.67;;;10.70;99.90;;;;;;5075384;28;20048;-70
2022/04/09 10:30:14;;;;;;;12.82;2.20;;;10.60;99.90;;;;;;5075727;28;20047;-70
2022/04/09 10:32:54;;;;;;;5.60;1.02;;;10.20;99.90;;;;;;5075616;28;20048;-71
2022/04/09 10:35:41;;;;;;;8.38;1.60;;;9.90;99.90;;;;;;5075865;28;20123;-70
2022/04/09 10:38:09;;;;;;;6.82;1.50;;;9.80;99.90;;;;;;5075345;28;20063;-70
2022/04/09 10:40:50;;;;;;;7.15;1.23;;;10.00;99.90;;;;;;5075489;28;20071;-70
2022/04/09 10:43:21;;;;;;;6.97;1.35;;;10.40;99.90;;;;;;5075788;28;20039;-70
2022/04/09 10:46:03;;;;;;;7.50;1.38;;;10.70;99.90;;;;;;5058743;28;20040;-70
2022/04/09 10:48:32;;;;;;;3.72;0.55;;;10.40;99.90;;;;;;5075262;28;20036;-70
2022/04/09 10:51:09;;;;;;;6.90;1.10;;;9.90;99.90;;;;;;5075555;28;20032;-70
2022/04/09 10:53:40;;;;;;;7.00;1.13;;;9.20;99.90;;;;;;5075654;28;20044;-70
2022/04/09 10:56:42;;;;;;;5.05;0.90;;;8.70;99.90;;;;;;5075374;28;20036;-70
2022/04/09 10:59:13;;;;;;;7.80;1.70;;;8.40;99.90;;;;;;5075289;28;20381;-70
2022/04/09 11:04:29;;;;;;;6.55;1.00;;;7.90;99.90;;;;;;5075469;28;20047;-70
2022/04/09 11:07:18;;;;;;;8.40;1.50;;;7.80;99.90;;;;;;5075185;28;20048;-70
2022/04/09 11:09:48;;;;;;;5.18;1.08;;;7.80;99.90;;;;;;5075999;28;20042;-70
2022/04/09 11:12:26;;;;;;;8.25;1.42;;;8.10;99.90;;;;;;5075281;28;20074;-71
2022/04/09 11:14:55;;;;;;;5.43;1.00;;;8.50;99.90;;;;;;5075385;28;20040;-70
2022/04/09 11:17:32;;;;;;;6.90;1.33;;;8.90;99.90;;;;;;5075316;28;20036;-72
2022/04/09 11:20:05;;;;;;;4.30;1.10;;;9.20;99.90;;;;;;5075169;28;20404;-71
2022/04/09 11:22:33;;;;;;;8.48;1.30;;;9.60;99.90;;;;;;5075129;28;20497;-71
2022/04/09 11:24:59;;;;;;;10.52;1.77;;;9.80;99.90;;;;;;5059492;28;20122;-71
2022/04/09 11:27:32;;;;;;;7.68;1.38;;;10.00;99.90;;;;;;5075397;28;20047;-71
2022/04/09 11:29:58;;;;;;;9.20;1.42;;;10.30;99.90;;;;;;5075222;28;20515;-71
2022/04/09 11:32:25;;;;;;;8.10;1.50;;;10.50;99.90;;;;;;5074939;28;20036;-71
2022/04/09 11:34:59;;;;;;;6.75;1.33;;;10.90;99.90;;;;;;5074973;28;20044;-71
2022/04/09 11:37:26;;;;;;;;;;;11.00;99.90;;;;;;5075318;28;20040;-71
2022/04/09 11:39:53;;;;;;;8.80;1.75;;;11.00;99.90;;;;;;5075030;28;19994;-71
2022/04/09 11:42:19;;;;;;;10.10;1.98;;;10.90;99.90;;;;;;5076769;28;20040;-71
2022/04/09 11:44:45;;;;;;;7.45;1.20;;;10.70;99.90;;;;;;5078797;28;20492;-71
2022/04/09 11:47:16;;;;;;;8.50;1.60;;;10.30;99.90;;;;;;5078768;28;20070;-70
2022/04/09 11:49:49;;;;;;;11.00;2.20;;;10.10;99.90;;;;;;5078734;28;20040;-70
2022/04/09 11:52:30;;;;;;;8.38;1.30;;;9.80;99.90;;;;;;5078807;28;20492;-71
2022/04/09 11:54:59;;;;;;;10.32;1.52;;;9.50;99.90;;;;;;5078623;28;20496;-71
2022/04/09 11:57:25;;;;;;;11.60;1.92;;;9.30;99.90;;;;;;5061814;28;20119;-71
2022/04/09 11:59:55;;;;;;;7.00;1.25;;;9.30;99.90;;;;;;5078589;28;20089;-71
2022/04/09 12:02:25;;;;;;;9.52;1.80;;;9.70;99.90;;;;;;5062118;28;20048;-72
2022/04/09 12:04:52;;;;;;;7.47;1.65;;;10.10;99.90;;;;;;5062014;28;20484;-72
2022/04/09 12:07:18;;;;;;;8.75;1.33;;;10.30;99.90;;;;;;5061759;28;20127;-72
2022/04/09 12:09:44;;;;;;;11.23;1.23;;;9.90;99.90;;;;;;5078220;28;20051;-72
2022/04/09 12:12:16;;;;;;;7.05;1.17;;;9.50;99.90;;;;;;5061588;28;20044;-72
2022/04/09 12:14:52;;;;;;;6.40;1.42;;;9.30;99.90;;;;;;5061964;28;20042;-72
2022/04/09 12:17:18;;;;;;;5.32;1.00;;;9.60;99.90;;;;;;5078244;28;20036;-72
2022/04/09 12:19:44;;;;;;;7.85;1.10;;;10.00;99.90;;;;;;5078073;28;20036;-72
2022/04/09 12:22:16;;;;;;;5.53;1.02;;;10.20;99.90;;;;;;5078211;28;20047;-72
2022/04/09 12:25:00;;;;;;;6.28;0.70;;;10.10;99.90;;;;;;5061452;28;20032;-71
2022/04/09 12:27:43;;;;;;;3.22;0.57;;;9.80;99.90;;;;;;5078798;28;20395;-71
2022/04/09 12:30:10;;;;;;;5.00;0.60;;;9.90;99.90;;;;;;5078039;28;20121;-71
2022/04/09 12:32:36;;;;;;;5.35;0.70;;;9.90;99.90;;;;;;5078042;28;20150;-71
2022/04/09 12:35:06;;;;;;;3.58;0.60;;;9.80;99.90;;;;;;5077946;28;20076;-71
2022/04/09 12:37:42;;;;;;;4.57;0.75;;;9.70;99.90;;;;;;5077834;28;20085;-71
2022/04/09 12:40:12;;;;;;;5.15;1.05;;;9.50;99.90;;;;;;5061440;28;20036;-71
2022/04/09 12:42:38;;;;;;;5.13;1.10;;;9.20;99.90;;;;;;5078017;28;20043;-71
2022/04/09 12:45:11;;;;;;;4.07;0.88;;;9.20;99.90;;;;;;5077697;28;20036;-71
2022/04/09 12:47:37;;;;;;;3.67;0.65;;;9.50;99.90;;;;;;5077647;28;20039;-71
2022/04/09 12:50:04;;;;;;;2.40;0.60;;;9.90;99.90;;;;;;5077713;28;20071;-71
2022/04/09 12:52:30;;;;;;;2.65;0.50;;;10.30;99.90;;;;;;5077634;28;20131;-71
2022/04/09 12:54:56;;;;;;;4.38;0.47;;;10.50;99.90;;;;;;5076418;28;20048;-71
2022/04/09 12:57:22;;;;;;;2.17;0.40;;;10.70;99.90;;;;;;5077465;28;20121;-71